Time;durP1;ratioP1;P1;durP2;ratioP2;P2;SDS_P1;SDS_P2;PMS_P1;PMS_P2;Temp;Humidity;BMP_temperature;BMP_pressure;BME280_temperature;BME280_humidity;BME280_pressure;Samples;Min_cycle;Max_cycle;Signal;HPM_P1;HPM_P2
2021/10/01 11:30:53;;;;;;;459.45;203.60;;;;;;;17.49;66.83;101519.08;1786824;79;23494;-81
2021/10/01 11:33:20;;;;;;;190.43;90.38;;;;;;;17.29;71.32;101526.05;1780144;80;21047;-82
2021/10/01 11:37:38;;;;;;;125.12;45.40;;;;;;;17.41;75.51;101519.16;1838815;77;23264;-82
2021/10/01 11:40:09;;;;;;;224.15;97.08;;;;;;;17.65;77.08;101522.22;1765682;80;21488;-83
2021/10/01 11:42:41;;;;;;;150.32;71.50;;;;;;;18.04;74.85;101524.00;1782891;80;21043;-82
2021/10/01 11:45:30;;;;;;;192.28;94.22;;;;;;;18.32;77.43;101516.58;1740762;81;21486;-83
2021/10/01 11:48:07;;;;;;;145.38;75.78;;;;;;;18.54;67.55;101511.55;1737262;82;21102;-82
2021/10/01 11:50:44;;;;;;;119.33;57.73;;;;;;;18.43;59.88;101514.73;1738485;82;21061;-82
2021/10/01 11:53:24;;;;;;;73.90;39.67;;;;;;;18.14;57.95;101516.39;1683005;85;21159;-84
2021/10/01 11:56:01;;;;;;;22.93;9.20;;;;;;;18.04;67.46;101510.32;1671615;85;21057;-85
2021/10/01 11:58:31;;;;;;;21.33;6.97;;;;;;;18.16;60.20;101506.63;1657570;85;21051;-83
2021/10/01 12:01:16;;;;;;;46.90;15.48;;;;;;;17.99;57.24;101511.42;1661600;85;21054;-82
2021/10/01 12:03:53;;;;;;;28.90;12.60;;;;;;;17.80;66.70;101508.63;1672697;85;21046;-78
2021/10/01 12:06:27;;;;;;;26.77;8.05;;;;;;;17.75;66.18;101501.48;1672982;85;21024;-80
2021/10/01 12:08:58;;;;;;;15.25;5.33;;;;;;;17.75;71.04;101505.06;1627920;87;21079;-81
2021/10/01 12:11:35;;;;;;;33.83;8.55;;;;;;;17.58;62.20;101498.88;1603694;89;21074;-81
2021/10/01 12:14:15;;;;;;;28.95;8.63;;;;;;;17.39;67.53;101500.19;1568487;91;21113;-81
2021/10/01 12:16:58;;;;;;;46.00;26.17;;;;;;;17.39;77.10;101491.14;1579962;90;21053;-82
2021/10/01 12:19:26;;;;;;;47.13;7.75;;;;;;;17.48;76.17;101498.78;1555354;92;21101;-83
2021/10/01 12:22:09;;;;;;;44.60;8.58;;;;;;;17.45;71.61;101503.55;1557649;92;21134;-84
2021/10/01 12:24:48;;;;;;;32.15;13.45;;;;;;;17.41;76.17;101496.75;1558922;92;21001;-83
2021/10/01 12:27:16;;;;;;;22.02;10.00;;;;;;;17.46;74.58;101494.33;1558578;92;21078;-84
2021/10/01 12:29:47;;;;;;;30.43;8.55;;;;;;;17.33;59.60;101493.22;1550386;92;21098;-82
2021/10/01 12:32:14;;;;;;;40.25;20.02;;;;;;;17.17;65.65;101492.27;1543833;92;21124;-79
2021/10/01 12:34:56;;;;;;;21.20;8.23;;;;;;;16.98;57.10;101493.58;1538091;93;21040;-81
2021/10/01 12:37:28;;;;;;;;;;;;;;;16.80;59.13;101503.36;1536316;93;21162;-79
2021/10/01 12:40:00;;;;;;;34.00;18.95;;;;;;;16.72;60.66;101499.81;1511181;95;20125;-85
2021/10/01 12:42:31;;;;;;;14.60;5.53;;;;;;;16.70;64.07;101495.36;1530209;92;21063;-85
2021/10/01 12:45:15;;;;;;;31.05;6.03;;;;;;;16.80;66.48;101489.70;1533085;92;21128;-80
2021/10/01 12:47:45;;;;;;;30.97;9.20;;;;;;;16.86;63.80;101490.38;1538642;93;21086;-82
2021/10/01 12:50:31;;;;;;;23.52;7.85;;;;;;;16.92;78.84;101495.64;1573412;90;21034;-82
2021/10/01 12:53:00;;;;;;;23.32;8.13;;;;;;;16.94;60.21;101483.17;1590196;90;21436;-71
2021/10/01 12:55:32;;;;;;;18.90;7.15;;;;;;;16.77;60.97;101487.32;1591113;89;21113;-70
2021/10/01 12:57:59;;;;;;;23.90;11.43;;;;;;;16.66;61.94;101488.55;1592867;90;21564;-71
2021/10/01 13:00:37;;;;;;;36.77;20.43;;;;;;;16.62;63.68;101488.55;1657511;86;21002;-72
2021/10/01 13:03:06;;;;;;;51.68;28.85;;;;;;;16.60;62.89;101481.05;1660434;86;21041;-75
2021/10/01 13:05:38;;;;;;;18.05;8.80;;;;;;;16.55;63.59;101479.36;1676919;82;21026;-75
2021/10/01 13:08:13;;;;;;;32.93;12.05;;;;;;;16.58;65.48;101481.74;1745732;82;21037;-84
2021/10/01 13:10:50;;;;;;;25.25;10.15;;;;;;;16.57;67.55;101476.45;1726276;83;21144;-77
2021/10/01 13:13:23;;;;;;;19.42;5.95;;;;;;;16.59;70.18;101477.13;1726601;83;21578;-79
2021/10/01 13:15:55;;;;;;;27.55;9.73;;;;;;;16.61;71.15;101472.33;1725304;83;21044;-83
2021/10/01 13:18:28;;;;;;;79.75;46.18;;;;;;;16.69;67.76;101475.05;1673207;86;21056;-84
2021/10/01 13:21:16;;;;;;;52.43;24.92;;;;;;;16.68;63.69;101476.94;1619550;87;21137;-81
2021/10/01 13:24:01;;;;;;;42.75;14.55;;;;;;;16.57;61.17;101477.30;1640352;87;21065;-80
2021/10/01 13:26:35;;;;;;;26.23;9.35;;;;;;;16.43;65.38;101468.47;1656373;86;21052;-84
2021/10/01 13:29:09;;;;;;;29.80;7.25;;;;;;;16.37;64.74;101476.01;1579910;91;21072;-81
2021/10/01 13:31:44;;;;;;;20.08;5.97;;;;;;;16.32;71.93;101475.16;1580592;91;21181;-83
2021/10/01 13:34:15;;;;;;;21.75;6.53;;;;;;;16.32;68.64;101477.88;1560026;91;21084;-84
2021/10/01 13:36:46;;;;;;;62.83;11.90;;;;;;;16.30;67.27;101470.39;1551944;91;21062;-82
2021/10/01 13:39:13;;;;;;;44.33;13.98;;;;;;;16.26;68.35;101469.04;1569875;91;21062;-80
2021/10/01 13:41:40;;;;;;;31.87;10.18;;;;;;;16.30;74.82;101469.86;1565593;91;21042;-80
2021/10/01 13:44:07;;;;;;;18.32;5.10;;;;;;;16.42;80.27;101474.97;1575849;91;21057;-80
2021/10/01 13:46:38;;;;;;;16.93;5.17;;;;;;;16.51;75.05;101471.19;1575350;91;21151;-84
2021/10/01 13:49:05;;;;;;;30.68;15.13;;;;;;;16.51;70.92;101465.73;1577072;91;21025;-79
2021/10/01 13:51:33;;;;;;;17.52;7.83;;;;;;;16.50;71.23;101468.11;1579801;91;21270;-85
2021/10/01 13:54:00;;;;;;;14.07;6.05;;;;;;;16.50;63.91;101469.47;1581749;91;21087;-80
2021/10/01 13:56:27;;;;;;;23.00;7.67;;;;;;;16.50;73.08;101464.01;1558935;92;21039;-79
2021/10/01 13:58:54;;;;;;;18.37;8.13;;;;;;;16.61;69.29;101468.23;1543073;93;21147;-81
2021/10/01 14:01:21;;;;;;;18.62;6.37;;;;;;;16.69;70.98;101462.76;1558597;92;21124;-79
2021/10/01 14:03:49;;;;;;;17.65;4.92;;;;;;;16.86;75.53;101461.70;1539374;92;21092;-79
2021/10/01 14:06:16;;;;;;;15.53;6.50;;;;;;;16.99;70.54;101459.75;1553071;91;21014;-83
2021/10/01 14:08:43;;;;;;;13.88;5.05;;;;;;;17.01;64.78;101456.31;1567605;91;21129;-82
2021/10/01 14:11:10;;;;;;;9.80;4.78;;;;;;;16.93;68.01;101460.48;1568854;92;21106;-83
2021/10/01 14:13:39;;;;;;;12.13;4.80;;;;;;;16.84;66.69;101466.49;1568625;92;21063;-85
2021/10/01 14:16:08;;;;;;;13.53;4.35;;;;;;;16.80;66.42;101462.88;1582147;91;21131;-85
2021/10/01 14:18:37;;;;;;;12.30;4.37;;;;;;;16.75;67.90;101461.20;1583936;91;21563;-87
2021/10/01 14:21:05;;;;;;;16.77;4.53;;;;;;;16.66;69.80;101457.64;1633750;88;21065;-86
2021/10/01 14:23:32;;;;;;;10.05;4.12;;;;;;;16.58;71.80;101467.25;1633582;88;21053;-88
2021/10/01 14:26:01;;;;;;;14.00;4.87;;;;;;;16.44;68.48;101458.74;1747858;79;21018;-88
2021/10/01 14:28:30;;;;;;;10.63;3.77;;;;;;;16.26;71.06;101454.03;1822001;79;21010;-86
2021/10/01 14:30:57;;;;;;;14.30;5.22;;;;;;;15.98;68.73;101463.11;1822485;79;21002;-84
2021/10/01 14:33:24;;;;;;;14.23;4.30;;;;;;;15.68;69.58;101463.58;1822321;79;21080;-85
2021/10/01 14:35:53;;;;;;;9.50;4.15;;;;;;;15.42;76.38;101472.42;1823775;79;21041;-87
2021/10/01 14:38:20;;;;;;;12.58;3.67;;;;;;;15.16;80.22;101467.44;1827803;79;21034;-85
2021/10/01 14:40:49;;;;;;;9.75;3.98;;;;;;;14.96;82.75;101468.73;1827426;78;20994;-86
2021/10/01 14:43:16;;;;;;;17.62;7.35;;;;;;;14.75;87.58;101470.03;1827561;78;20994;-87
2021/10/01 14:45:43;;;;;;;17.62;6.47;;;;;;;14.58;89.57;101470.45;1827232;79;21021;-87
2021/10/01 14:48:10;;;;;;;16.48;6.55;;;;;;;14.41;92.70;101467.25;1826759;78;20983;-86
2021/10/01 14:50:37;;;;;;;17.42;6.05;;;;;;;14.24;93.53;101474.48;1826878;79;21034;-86
2021/10/01 14:53:04;;;;;;;11.73;4.92;;;;;;;14.09;95.29;101474.70;1827237;79;21034;-86
2021/10/01 14:55:32;;;;;;;14.75;4.62;;;;;;;13.78;98.07;101472.45;1827440;79;21014;-88
2021/10/01 14:57:59;;;;;;;11.10;5.03;;;;;;;13.78;98.07;101472.45;1827762;79;21038;-88
2021/10/01 15:00:28;;;;;;;11.28;4.85;;;;;;;13.64;100.00;101474.70;1791669;80;21109;-87
2021/10/01 15:02:56;;;;;;;12.25;4.83;;;;;;;13.49;100.00;101473.52;1792095;80;21046;-87
2021/10/01 15:05:24;;;;;;;13.05;5.65;;;;;;;13.35;100.00;101483.58;1791015;80;21075;-89
2021/10/01 15:07:51;;;;;;;25.10;11.97;;;;;;;13.21;100.00;101478.13;1786035;80;20996;-86
2021/10/01 15:10:18;;;;;;;15.45;4.20;;;;;;;13.07;100.00;101483.60;1786434;80;21062;-88
2021/10/01 15:12:47;;;;;;;12.07;4.37;;;;;;;12.97;100.00;101481.44;1786787;80;21097;-87
2021/10/01 15:15:14;;;;;;;12.03;4.97;;;;;;;12.87;100.00;101483.71;1786227;80;21020;-87
2021/10/01 15:17:44;;;;;;;15.32;6.45;;;;;;;12.75;100.00;101482.68;1786135;80;21055;-86
2021/10/01 15:20:11;;;;;;;20.62;9.00;;;;;;;12.63;100.00;101482.05;1786264;80;20988;-87
2021/10/01 15:22:39;;;;;;;35.15;15.53;;;;;;;12.51;100.00;101478.65;1786319;80;21089;-87
2021/10/01 15:25:09;;;;;;;35.35;18.02;;;;;;;12.40;100.00;101478.84;1807815;79;21038;-89
2021/10/01 15:27:38;;;;;;;41.45;24.10;;;;;;;12.27;100.00;101483.21;1824311;79;21047;-88
2021/10/01 15:30:11;;;;;;;51.60;29.67;;;;;;;12.16;100.00;101481.53;1824574;79;20973;-88
2021/10/01 15:32:44;;;;;;;46.50;30.52;;;;;;;12.07;100.00;101483.26;1824326;78;21015;-87
2021/10/01 15:35:11;;;;;;;43.50;25.82;;;;;;;11.98;100.00;101483.30;1819983;79;21506;-88
2021/10/01 15:37:38;;;;;;;38.42;21.00;;;;;;;11.89;100.00;101485.83;1813290;78;21010;-88
2021/10/01 15:40:05;;;;;;;35.50;18.32;;;;;;;11.82;100.00;101489.27;1797918;80;21049;-88
2021/10/01 15:42:34;;;;;;;31.12;13.28;;;;;;;11.74;100.00;101494.91;1797643;79;21046;-87
2021/10/01 15:45:01;;;;;;;25.50;11.43;;;;;;;11.68;100.00;101497.33;1798000;79;21050;-87
2021/10/01 15:47:29;;;;;;;22.52;9.70;;;;;;;11.60;100.00;101495.34;1797740;80;21376;-86
2021/10/01 15:49:56;;;;;;;18.80;7.70;;;;;;;11.52;100.00;101486.55;1797886;79;20997;-87
2021/10/01 15:52:23;;;;;;;17.73;7.60;;;;;;;11.46;100.00;101496.61;1797561;80;20986;-88
2021/10/01 15:54:52;;;;;;;15.13;6.60;;;;;;;11.39;100.00;101493.60;1797375;80;21020;-87
2021/10/01 15:57:19;;;;;;;16.90;7.60;;;;;;;11.32;100.00;101499.22;1798109;80;21038;-86
2021/10/01 15:59:46;;;;;;;18.85;9.08;;;;;;;11.27;100.00;101497.44;1797903;79;21028;-87
2021/10/01 16:02:16;;;;;;;20.43;9.08;;;;;;;11.22;100.00;101499.70;1797841;79;20959;-86
2021/10/01 16:04:44;;;;;;;22.10;9.85;;;;;;;11.18;100.00;101499.63;1797361;80;21029;-88
2021/10/01 16:07:11;;;;;;;21.70;10.15;;;;;;;11.14;100.00;101503.63;1826378;78;21038;-88
2021/10/01 16:09:38;;;;;;;22.20;10.88;;;;;;;11.10;100.00;101504.41;1829642;78;21317;-87
2021/10/01 16:12:07;;;;;;;19.87;9.75;;;;;;;11.05;100.00;101510.72;1829740;78;21047;-86
2021/10/01 16:14:35;;;;;;;22.30;11.83;;;;;;;11.00;100.00;101503.00;1829808;78;21039;-85
2021/10/01 16:17:04;;;;;;;22.85;13.55;;;;;;;10.97;100.00;101510.55;1829294;78;20976;-85
2021/10/01 16:19:32;;;;;;;22.10;11.08;;;;;;;10.92;100.00;101512.80;1829330;78;21055;-86
2021/10/01 16:21:58;;;;;;;21.27;10.40;;;;;;;10.86;100.00;101511.51;1830185;78;21016;-86
2021/10/01 16:24:26;;;;;;;19.55;9.73;;;;;;;10.83;100.00;101507.72;1830245;78;21063;-87
2021/10/01 16:26:55;;;;;;;20.00;8.65;;;;;;;10.81;100.00;101514.61;1788206;80;21020;-83
2021/10/01 16:29:22;;;;;;;19.05;8.10;;;;;;;10.76;100.00;101514.16;1758103;82;21036;-85
2021/10/01 16:31:49;;;;;;;16.32;7.45;;;;;;;10.76;100.00;101510.61;1758480;82;21044;-85
2021/10/01 16:34:20;;;;;;;16.93;8.18;;;;;;;10.73;100.00;101511.75;1758638;82;21016;-85
2021/10/01 16:36:47;;;;;;;17.77;7.90;;;;;;;10.72;100.00;101511.88;1745108;82;20968;-83
2021/10/01 16:39:19;;;;;;;18.65;7.10;;;;;;;10.68;100.00;101509.07;1799905;80;21019;-83
2021/10/01 16:41:46;;;;;;;16.32;7.12;;;;;;;10.65;100.00;101510.21;1800073;80;21030;-85
2021/10/01 16:44:16;;;;;;;17.15;6.03;;;;;;;10.63;100.00;101514.91;1799882;80;21050;-85
2021/10/01 16:46:43;;;;;;;15.08;5.92;;;;;;;10.60;100.00;101503.00;1799951;80;21008;-86
2021/10/01 16:49:12;;;;;;;16.07;6.40;;;;;;;10.58;100.00;101499.58;1799677;80;21039;-86
2021/10/01 16:51:40;;;;;;;14.18;6.40;;;;;;;10.54;100.00;101509.81;1799355;80;21031;-86
2021/10/01 16:54:07;;;;;;;15.05;6.05;;;;;;;10.50;100.00;101510.20;1799824;80;21055;-85
2021/10/01 16:56:36;;;;;;;14.83;6.03;;;;;;;10.46;100.00;101510.97;1799335;80;21054;-86
2021/10/01 16:59:02;;;;;;;18.77;5.80;;;;;;;10.41;100.00;101512.74;1799899;80;20968;-86
2021/10/01 17:01:31;;;;;;;15.27;5.80;;;;;;;10.40;100.00;101509.66;1799474;80;21042;-86
2021/10/01 17:03:58;;;;;;;20.72;6.17;;;;;;;10.39;100.00;101509.32;1799638;80;21707;-85
2021/10/01 17:06:26;;;;;;;14.80;6.03;;;;;;;10.39;100.00;101509.32;1808520;79;21007;-84
2021/10/01 17:08:53;;;;;;;17.83;5.30;;;;;;;10.39;100.00;101513.38;1815495;79;21022;-86
2021/10/01 17:11:20;;;;;;;17.50;5.58;;;;;;;10.37;100.00;101507.22;1815358;79;21034;-86
2021/10/01 17:13:48;;;;;;;16.47;5.73;;;;;;;10.37;100.00;101510.42;1815393;79;21030;-84
2021/10/01 17:16:17;;;;;;;16.15;6.35;;;;;;;10.35;100.00;101511.91;1814871;79;21034;-84
2021/10/01 17:18:45;;;;;;;13.13;6.58;;;;;;;10.32;100.00;101519.43;1815423;79;21022;-85
2021/10/01 17:21:14;;;;;;;13.70;6.17;;;;;;;10.26;100.00;101516.23;1815739;79;21026;-83
2021/10/01 17:23:41;;;;;;;16.82;6.85;;;;;;;10.20;100.00;101515.42;1815497;79;21144;-85
2021/10/01 17:26:08;;;;;;;15.75;6.10;;;;;;;10.13;100.00;101520.12;1815594;79;21492;-85
2021/10/01 17:28:36;;;;;;;14.43;6.70;;;;;;;10.05;100.00;101522.98;1815249;79;21023;-87
2021/10/01 17:31:04;;;;;;;17.40;8.63;;;;;;;9.99;100.00;101517.28;1813961;79;21523;-76
2021/10/01 17:33:30;;;;;;;22.25;9.03;;;;;;;9.92;100.00;101516.09;1813469;79;21010;-75
2021/10/01 17:35:58;;;;;;;18.15;8.60;;;;;;;9.87;100.00;101520.02;1813687;79;21010;-76
2021/10/01 17:38:24;;;;;;;18.02;8.20;;;;;;;9.83;100.00;101516.38;1792176;79;21004;-75
2021/10/01 17:40:51;;;;;;;15.10;7.60;;;;;;;9.80;100.00;101516.62;1787666;80;21020;-75
2021/10/01 17:43:18;;;;;;;22.17;7.87;;;;;;;9.78;100.00;101518.61;1787621;80;21039;-76
2021/10/01 17:45:45;;;;;;;22.17;8.95;;;;;;;9.74;100.00;101522.06;1787460;80;21092;-76
2021/10/01 17:48:12;;;;;;;22.17;9.03;;;;;;;9.72;100.00;101521.81;1787559;80;21553;-76
2021/10/01 17:50:39;;;;;;;18.63;8.83;;;;;;;9.70;100.00;101523.28;1787136;80;21024;-75
2021/10/01 17:53:07;;;;;;;18.40;8.17;;;;;;;9.66;100.00;101522.69;1787161;80;21390;-75
2021/10/01 17:55:35;;;;;;;19.70;7.70;;;;;;;9.66;100.00;101523.19;1787302;80;21064;-75
2021/10/01 17:58:03;;;;;;;17.80;7.67;;;;;;;9.62;100.00;101511.78;1787268;80;21025;-76
2021/10/01 18:00:37;;;;;;;17.80;7.40;;;;;;;9.58;100.00;101517.56;1787117;80;21032;-76
2021/10/01 18:02:59;;;;;;;20.00;8.30;;;;;;;9.53;100.00;101521.17;1783689;80;21554;-76
2021/10/01 18:05:26;;;;;;;15.60;7.63;;;;;;;9.47;100.00;101517.99;1789035;79;20993;-74
2021/10/01 18:07:53;;;;;;;17.07;6.87;;;;;;;9.44;100.00;101520.94;1797409;79;21499;-76
2021/10/01 18:10:19;;;;;;;20.50;7.87;;;;;;;9.42;100.00;101516.63;1797460;79;21044;-76
2021/10/01 18:12:48;;;;;;;16.63;7.67;;;;;;;9.41;100.00;101523.04;1797524;80;21151;-75
2021/10/01 18:15:16;;;;;;;18.57;8.17;;;;;;;9.37;100.00;101518.89;1797353;80;21017;-75
2021/10/01 18:17:44;;;;;;;18.60;8.93;;;;;;;9.35;100.00;101514.08;1797370;80;21018;-76
2021/10/01 18:20:13;;;;;;;17.77;7.67;;;;;;;9.31;100.00;101517.06;1797643;80;21057;-75
2021/10/01 18:22:41;;;;;;;19.23;8.87;;;;;;;9.28;100.00;101520.50;1797475;80;20999;-74
2021/10/01 18:25:08;;;;;;;21.33;8.90;;;;;;;9.26;100.00;101519.75;1797311;80;21025;-75
2021/10/01 18:27:35;;;;;;;21.80;9.00;;;;;;;9.22;100.00;101515.09;1797773;80;21043;-76
2021/10/01 18:30:04;;;;;;;20.63;9.00;;;;;;;9.19;100.00;101519.42;1797361;80;21060;-75
2021/10/01 18:32:31;;;;;;;20.93;10.03;;;;;;;9.15;100.00;101516.58;1797477;80;21005;-75
2021/10/01 18:34:58;;;;;;;21.13;9.03;;;;;;;9.13;100.00;101518.55;1797686;80;21758;-76
2021/10/01 18:37:25;;;;;;;18.30;8.33;;;;;;;9.12;100.00;101522.25;1793177;80;21005;-76
2021/10/01 18:39:52;;;;;;;20.10;8.73;;;;;;;9.11;100.00;101515.98;1787040;80;21624;-76
2021/10/01 18:42:19;;;;;;;17.30;7.80;;;;;;;9.12;100.00;101527.65;1787063;80;21055;-76
2021/10/01 18:44:46;;;;;;;16.33;7.70;;;;;;;9.11;100.00;101524.07;1787372;80;21504;-76
2021/10/01 18:47:13;;;;;;;18.90;8.63;;;;;;;9.09;100.00;101525.20;1787545;80;20972;-76
2021/10/01 18:49:40;;;;;;;20.27;8.60;;;;;;;9.07;100.00;101523.97;1787073;80;21494;-76
2021/10/01 18:52:07;;;;;;;19.50;9.20;;;;;;;9.04;100.00;101524.20;1786998;80;21071;-75
2021/10/01 18:54:35;;;;;;;22.53;11.37;;;;;;;9.00;100.00;101517.86;1787273;80;21099;-76
2021/10/01 18:57:04;;;;;;;21.40;10.67;;;;;;;8.96;100.00;101525.34;1787454;80;20981;-75
2021/10/01 18:59:31;;;;;;;24.33;10.00;;;;;;;8.88;100.00;101521.89;1787215;80;21000;-76
2021/10/01 19:01:58;;;;;;;20.33;9.07;;;;;;;8.84;100.00;101521.78;1787543;80;21498;-76
2021/10/01 19:04:25;;;;;;;20.47;9.10;;;;;;;8.79;100.00;101523.98;1787445;80;21032;-76
2021/10/01 19:06:54;;;;;;;19.60;11.10;;;;;;;8.76;100.00;101527.42;1794934;79;21017;-74
2021/10/01 19:09:23;;;;;;;20.70;11.53;;;;;;;8.71;100.00;101527.31;1797430;80;21008;-76
2021/10/01 19:11:49;;;;;;;21.97;9.90;;;;;;;8.67;100.00;101533.91;1797461;80;21052;-75
2021/10/01 19:14:20;;;;;;;20.70;8.97;;;;;;;8.62;100.00;101532.06;1797305;79;21052;-76
2021/10/01 19:16:46;;;;;;;19.37;8.50;;;;;;;8.58;100.00;101529.75;1797466;80;21026;-76
2021/10/01 19:19:15;;;;;;;18.40;8.77;;;;;;;8.54;100.00;101526.45;1797527;80;21029;-76
2021/10/01 19:21:45;;;;;;;21.17;8.40;;;;;;;8.50;100.00;101534.41;1797261;80;21036;-75
2021/10/01 19:24:18;;;;;;;18.80;9.40;;;;;;;8.48;100.00;101536.34;1797632;80;21048;-76
2021/10/01 19:32:05;;;;;;;25.63;14.27;;;;;;;8.36;100.00;101526.88;1797782;80;21502;-75
2021/10/01 19:34:32;;;;;;;25.90;16.80;;;;;;;8.32;100.00;101525.88;1797715;80;21009;-75
2021/10/01 19:36:59;;;;;;;24.90;15.57;;;;;;;8.29;100.00;101528.84;1802091;79;21508;-76
2021/10/01 19:39:25;;;;;;;24.43;14.90;;;;;;;8.24;100.00;101521.09;1790150;79;21045;-74
2021/10/01 19:41:52;;;;;;;26.70;15.50;;;;;;;8.21;100.00;101521.33;1822096;79;20995;-75
2021/10/01 19:44:21;;;;;;;24.93;15.37;;;;;;;8.17;100.00;101525.25;1821917;79;21474;-75
2021/10/01 19:46:50;;;;;;;26.27;15.83;;;;;;;8.14;100.00;101528.17;1821970;79;21058;-76
2021/10/01 19:49:16;;;;;;;25.97;16.10;;;;;;;8.13;100.00;101527.33;1821958;79;21014;-75
2021/10/01 19:51:44;;;;;;;28.97;18.10;;;;;;;8.11;100.00;101527.94;1821833;79;21034;-76
2021/10/01 19:54:10;;;;;;;27.03;16.80;;;;;;;8.09;100.00;101527.20;1822116;79;21037;-75
2021/10/01 19:56:38;;;;;;;27.57;16.10;;;;;;;8.09;100.00;101531.71;1821661;79;21044;-76
2021/10/01 19:59:07;;;;;;;24.47;14.67;;;;;;;8.07;100.00;101529.63;1822114;79;21100;-75
2021/10/01 20:01:36;;;;;;;20.67;11.17;;;;;;;8.04;100.00;101532.09;1821940;79;21030;-76
2021/10/01 20:04:02;;;;;;;19.73;11.00;;;;;;;8.01;100.00;101535.01;1822043;79;21469;-77
2021/10/01 20:06:29;;;;;;;20.90;10.93;;;;;;;8.00;100.00;101533.27;1822038;79;20996;-76
2021/10/01 20:08:56;;;;;;;20.07;9.97;;;;;;;8.01;100.00;101527.42;1822222;78;21035;-76
2021/10/01 20:11:24;;;;;;;19.10;9.70;;;;;;;8.03;100.00;101525.47;1821797;79;21052;-76
2021/10/01 20:13:53;;;;;;;20.77;10.37;;;;;;;8.04;100.00;101533.90;1822257;79;21498;-75
2021/10/01 20:16:24;;;;;;;20.63;9.87;;;;;;;8.03;100.00;101533.55;1773211;81;21047;-75
2021/10/01 20:21:49;;;;;;;19.53;9.10;;;;;;;7.99;100.00;101535.13;1773263;81;21023;-75
2021/10/01 20:24:20;;;;;;;15.43;8.03;;;;;;;7.99;100.00;101531.08;1769507;81;21067;-75
2021/10/01 20:48:43;;;;;;;22.30;11.23;;;;;;;7.74;100.00;101520.48;1720033;83;21525;-76
2021/10/01 20:51:14;;;;;;;18.27;9.63;;;;;;;7.72;100.00;101522.41;1720380;83;21608;-76
2021/10/01 20:53:40;;;;;;;18.70;8.93;;;;;;;7.70;100.00;101519.85;1716669;83;21051;-76
2021/10/01 20:56:09;;;;;;;16.13;7.47;;;;;;;7.69;100.00;101510.55;1720320;83;21055;-76
2021/10/01 20:58:42;;;;;;;18.20;7.50;;;;;;;7.67;100.00;101517.39;1720328;83;21008;-76
2021/10/01 21:01:31;;;;;;;19.23;7.90;;;;;;;7.67;100.00;101513.84;1716724;83;21004;-77
2021/10/01 21:06:34;;;;;;;17.67;8.47;;;;;;;7.67;100.00;101512.00;1705464;83;21026;-76
2021/10/01 21:47:02;;;;;;;23.10;13.30;;;;;;;7.28;100.00;101507.75;1739983;82;21086;-76
2021/10/01 21:49:30;;;;;;;31.60;13.77;;;;;;;7.27;100.00;101511.44;1740268;82;21046;-76
2021/10/01 21:51:59;;;;;;;25.63;14.03;;;;;;;7.24;100.00;101507.13;1740284;82;21026;-76
2021/10/01 21:54:26;;;;;;;25.07;15.53;;;;;;;7.20;100.00;101506.98;1740294;82;21039;-75
2021/10/01 21:56:52;;;;;;;27.43;17.20;;;;;;;7.17;100.00;101504.05;1740103;82;21019;-75
2021/10/01 22:01:55;;;;;;;25.53;16.77;;;;;;;7.13;100.00;101503.88;1718411;83;21079;-75
2021/10/01 22:20:24;;;;;;;22.57;10.47;;;;;;;7.17;100.00;101512.13;1626543;88;21086;-76
2021/10/01 22:22:53;;;;;;;16.77;9.00;;;;;;;7.18;100.00;101505.75;1626589;88;21007;-76
2021/10/01 22:25:21;;;;;;;20.83;10.13;;;;;;;7.20;100.00;101506.49;1626494;87;21574;-75
2021/10/01 22:27:51;;;;;;;18.27;8.80;;;;;;;7.21;100.00;101514.10;1626621;88;21070;-76
2021/10/01 22:30:18;;;;;;;17.20;8.40;;;;;;;7.20;100.00;101504.30;1626586;88;21027;-76
2021/10/01 22:32:47;;;;;;;21.73;9.03;;;;;;;7.19;100.00;101501.25;1626246;88;21058;-76
2021/10/01 22:35:17;;;;;;;19.70;9.10;;;;;;;7.18;100.00;101507.59;1626638;88;21129;-76
2021/10/01 22:37:45;;;;;;;19.30;10.73;;;;;;;7.17;100.00;101503.17;1607842;89;21030;-75
2021/10/01 22:40:16;;;;;;;19.50;11.87;;;;;;;7.17;100.00;101505.86;1611009;89;21081;-75
2021/10/01 22:42:45;;;;;;;22.13;13.83;;;;;;;7.15;100.00;101513.19;1607781;89;21049;-77
2021/10/01 22:45:12;;;;;;;19.87;13.37;;;;;;;7.13;100.00;101507.07;1610926;89;21077;-77
2021/10/01 22:47:41;;;;;;;25.27;16.70;;;;;;;7.11;100.00;101507.67;1610769;89;21092;-76
2021/10/01 22:50:08;;;;;;;24.23;15.77;;;;;;;7.08;100.00;101510.08;1610944;89;21060;-75
2021/10/01 22:52:37;;;;;;;25.67;16.53;;;;;;;7.07;100.00;101514.26;1626815;88;21042;-76
2021/10/01 22:55:09;;;;;;;27.33;18.53;;;;;;;7.04;100.00;101514.83;1634380;88;21034;-76
2021/10/01 22:57:43;;;;;;;32.27;21.10;;;;;;;7.00;100.00;101510.66;1633489;88;21030;-85
2021/10/01 23:00:16;;;;;;;32.17;20.10;;;;;;;6.98;100.00;101511.75;1623821;88;21554;-85
2021/10/01 23:02:43;;;;;;;26.63;16.17;;;;;;;6.95;100.00;101516.00;1623996;88;21092;-84
2021/10/01 23:05:29;;;;;;;25.07;14.83;;;;;;;6.90;100.00;101513.63;1623802;88;21065;-84
2021/10/01 23:08:02;;;;;;;25.57;14.93;;;;;;;6.87;100.00;101514.34;1627127;86;21068;-85
2021/10/01 23:10:53;;;;;;;23.60;12.88;;;;;;;6.81;100.00;101515.16;1672076;86;21125;-83
